sensor_id;sensor_type;location;lat;lon;timestamp;P1;durP1;ratioP1;P2;durP2;ratioP2
6651;SDS011;3362;50.892;10.692;2023-07-22T00:01:04;4.00;;;1.90;;
6651;SDS011;3362;50.892;10.692;2023-07-22T00:03:30;3.08;;;2.42;;
6651;SDS011;3362;50.892;10.692;2023-07-22T00:06:02;7.97;;;2.05;;
6651;SDS011;3362;50.892;10.692;2023-07-22T00:08:30;2.80;;;2.35;;
6651;SDS011;3362;50.892;10.692;2023-07-22T00:10:56;5.05;;;2.85;;
6651;SDS011;3362;50.892;10.692;2023-07-22T00:13:23;2.95;;;2.20;;
6651;SDS011;3362;50.892;10.692;2023-07-22T00:15:53;5.18;;;2.22;;
6651;SDS011;3362;50.892;10.692;2023-07-22T00:18:19;6.10;;;2.70;;
6651;SDS011;3362;50.892;10.692;2023-07-22T00:20:45;3.67;;;2.78;;
6651;SDS011;3362;50.892;10.692;2023-07-22T00:23:11;2.75;;;2.20;;
6651;SDS011;3362;50.892;10.692;2023-07-22T00:25:40;3.08;;;2.33;;
6651;SDS011;3362;50.892;10.692;2023-07-22T00:28:06;7.75;;;2.20;;
6651;SDS011;3362;50.892;10.692;2023-07-22T00:30:32;2.75;;;2.17;;
6651;SDS011;3362;50.892;10.692;2023-07-22T00:33:01;3.72;;;2.53;;
6651;SDS011;3362;50.892;10.692;2023-07-22T00:35:27;2.65;;;2.10;;
6651;SDS011;3362;50.892;10.692;2023-07-22T00:37:53;6.18;;;2.05;;
6651;SDS011;3362;50.892;10.692;2023-07-22T00:40:20;2.80;;;2.42;;
6651;SDS011;3362;50.892;10.692;2023-07-22T00:42:47;2.88;;;2.20;;
6651;SDS011;3362;50.892;10.692;2023-07-22T00:45:14;2.83;;;2.30;;
6651;SDS011;3362;50.892;10.692;2023-07-22T00:47:40;2.83;;;2.45;;
6651;SDS011;3362;50.892;10.692;2023-07-22T00:50:08;2.70;;;2.17;;
6651;SDS011;3362;50.892;10.692;2023-07-22T00:52:35;2.75;;;2.15;;
6651;SDS011;3362;50.892;10.692;2023-07-22T00:55:01;2.75;;;2.53;;
6651;SDS011;3362;50.892;10.692;2023-07-22T00:57:27;3.50;;;2.38;;
6651;SDS011;3362;50.892;10.692;2023-07-22T00:59:54;3.90;;;2.40;;
6651;SDS011;3362;50.892;10.692;2023-07-22T01:02:21;6.40;;;2.30;;
6651;SDS011;3362;50.892;10.692;2023-07-22T01:04:48;5.03;;;2.85;;
6651;SDS011;3362;50.892;10.692;2023-07-22T01:07:16;3.25;;;2.42;;
6651;SDS011;3362;50.892;10.692;2023-07-22T01:09:42;2.75;;;2.55;;
6651;SDS011;3362;50.892;10.692;2023-07-22T01:12:09;2.55;;;1.95;;
6651;SDS011;3362;50.892;10.692;2023-07-22T01:14:36;6.10;;;2.22;;
6651;SDS011;3362;50.892;10.692;2023-07-22T01:17:03;2.92;;;2.20;;
6651;SDS011;3362;50.892;10.692;2023-07-22T01:19:31;5.10;;;2.25;;
6651;SDS011;3362;50.892;10.692;2023-07-22T01:21:58;2.60;;;2.00;;
6651;SDS011;3362;50.892;10.692;2023-07-22T01:24:26;5.35;;;2.50;;
6651;SDS011;3362;50.892;10.692;2023-07-22T01:26:53;2.65;;;1.95;;
6651;SDS011;3362;50.892;10.692;2023-07-22T01:29:19;4.25;;;2.40;;
6651;SDS011;3362;50.892;10.692;2023-07-22T01:31:48;3.08;;;2.33;;
6651;SDS011;3362;50.892;10.692;2023-07-22T01:34:14;4.20;;;1.95;;
6651;SDS011;3362;50.892;10.692;2023-07-22T01:36:42;3.65;;;2.53;;
6651;SDS011;3362;50.892;10.692;2023-07-22T01:39:08;3.90;;;2.53;;
6651;SDS011;3362;50.892;10.692;2023-07-22T01:41:37;2.90;;;2.25;;
6651;SDS011;3362;50.892;10.692;2023-07-22T01:44:03;4.72;;;2.83;;
6651;SDS011;3362;50.892;10.692;2023-07-22T01:46:30;3.03;;;2.40;;
6651;SDS011;3362;50.892;10.692;2023-07-22T01:48:56;2.50;;;2.30;;
6651;SDS011;3362;50.892;10.692;2023-07-22T01:51:22;3.67;;;2.75;;
6651;SDS011;3362;50.892;10.692;2023-07-22T01:53:50;7.13;;;3.15;;
6651;SDS011;3362;50.892;10.692;2023-07-22T01:56:16;4.68;;;2.88;;
6651;SDS011;3362;50.892;10.692;2023-07-22T01:58:46;3.97;;;2.67;;
6651;SDS011;3362;50.892;10.692;2023-07-22T02:01:13;3.50;;;2.78;;
6651;SDS011;3362;50.892;10.692;2023-07-22T02:03:40;3.30;;;2.60;;
6651;SDS011;3362;50.892;10.692;2023-07-22T02:06:07;2.33;;;2.13;;
6651;SDS011;3362;50.892;10.692;2023-07-22T02:08:33;3.00;;;2.45;;
6651;SDS011;3362;50.892;10.692;2023-07-22T02:11:01;3.58;;;2.30;;
6651;SDS011;3362;50.892;10.692;2023-07-22T02:13:28;3.47;;;2.80;;
6651;SDS011;3362;50.892;10.692;2023-07-22T02:15:56;5.18;;;2.88;;
6651;SDS011;3362;50.892;10.692;2023-07-22T02:18:22;4.43;;;2.88;;
6651;SDS011;3362;50.892;10.692;2023-07-22T02:20:49;3.88;;;3.13;;
6651;SDS011;3362;50.892;10.692;2023-07-22T02:23:15;4.13;;;2.90;;
6651;SDS011;3362;50.892;10.692;2023-07-22T02:25:41;3.13;;;2.50;;
6651;SDS011;3362;50.892;10.692;2023-07-22T02:28:07;4.40;;;3.15;;
6651;SDS011;3362;50.892;10.692;2023-07-22T02:30:34;6.20;;;3.22;;
6651;SDS011;3362;50.892;10.692;2023-07-22T02:33:02;4.25;;;3.22;;
6651;SDS011;3362;50.892;10.692;2023-07-22T02:35:29;5.13;;;2.75;;
6651;SDS011;3362;50.892;10.692;2023-07-22T02:37:55;5.90;;;3.03;;
6651;SDS011;3362;50.892;10.692;2023-07-22T02:40:21;5.78;;;3.03;;
6651;SDS011;3362;50.892;10.692;2023-07-22T02:42:47;3.55;;;3.03;;
6651;SDS011;3362;50.892;10.692;2023-07-22T02:45:14;4.50;;;3.17;;
6651;SDS011;3362;50.892;10.692;2023-07-22T02:47:40;4.60;;;2.70;;
6651;SDS011;3362;50.892;10.692;2023-07-22T02:50:08;4.15;;;2.70;;
6651;SDS011;3362;50.892;10.692;2023-07-22T02:52:35;3.95;;;2.35;;
6651;SDS011;3362;50.892;10.692;2023-07-22T02:55:05;3.83;;;2.58;;
6651;SDS011;3362;50.892;10.692;2023-07-22T02:57:31;4.03;;;2.55;;
6651;SDS011;3362;50.892;10.692;2023-07-22T02:59:58;11.40;;;2.92;;
6651;SDS011;3362;50.892;10.692;2023-07-22T03:02:24;3.47;;;2.65;;
6651;SDS011;3362;50.892;10.692;2023-07-22T03:04:50;5.20;;;3.05;;
6651;SDS011;3362;50.892;10.692;2023-07-22T03:07:18;4.53;;;2.50;;
6651;SDS011;3362;50.892;10.692;2023-07-22T03:09:45;5.45;;;2.75;;
6651;SDS011;3362;50.892;10.692;2023-07-22T03:12:11;3.08;;;2.75;;
6651;SDS011;3362;50.892;10.692;2023-07-22T03:14:38;4.25;;;3.00;;
6651;SDS011;3362;50.892;10.692;2023-07-22T03:17:04;5.78;;;3.45;;
6651;SDS011;3362;50.892;10.692;2023-07-22T03:19:30;4.03;;;2.80;;
6651;SDS011;3362;50.892;10.692;2023-07-22T03:21:57;5.55;;;3.03;;
6651;SDS011;3362;50.892;10.692;2023-07-22T03:24:25;3.55;;;2.58;;
6651;SDS011;3362;50.892;10.692;2023-07-22T03:26:51;3.05;;;2.63;;
6651;SDS011;3362;50.892;10.692;2023-07-22T03:29:17;4.78;;;3.47;;
6651;SDS011;3362;50.892;10.692;2023-07-22T03:31:43;4.28;;;3.13;;
6651;SDS011;3362;50.892;10.692;2023-07-22T03:34:10;2.83;;;2.40;;
6651;SDS011;3362;50.892;10.692;2023-07-22T03:36:36;4.30;;;2.88;;
6651;SDS011;3362;50.892;10.692;2023-07-22T03:39:02;4.88;;;3.22;;
6651;SDS011;3362;50.892;10.692;2023-07-22T03:41:30;5.22;;;3.67;;
6651;SDS011;3362;50.892;10.692;2023-07-22T03:43:56;6.40;;;3.80;;
6651;SDS011;3362;50.892;10.692;2023-07-22T03:46:23;6.35;;;3.50;;
6651;SDS011;3362;50.892;10.692;2023-07-22T03:48:49;5.75;;;4.35;;
6651;SDS011;3362;50.892;10.692;2023-07-22T03:51:15;6.75;;;4.03;;
6651;SDS011;3362;50.892;10.692;2023-07-22T03:53:41;5.85;;;3.55;;
6651;SDS011;3362;50.892;10.692;2023-07-22T03:56:08;5.00;;;3.25;;
6651;SDS011;3362;50.892;10.692;2023-07-22T03:58:35;9.10;;;3.60;;
6651;SDS011;3362;50.892;10.692;2023-07-22T04:01:01;6.75;;;3.15;;
6651;SDS011;3362;50.892;10.692;2023-07-22T04:03:28;6.50;;;3.72;;
6651;SDS011;3362;50.892;10.692;2023-07-22T04:05:54;5.43;;;3.28;;
6651;SDS011;3362;50.892;10.692;2023-07-22T04:08:20;5.93;;;4.22;;
6651;SDS011;3362;50.892;10.692;2023-07-22T04:10:50;7.93;;;3.85;;
6651;SDS011;3362;50.892;10.692;2023-07-22T04:13:17;5.80;;;4.28;;
6651;SDS011;3362;50.892;10.692;2023-07-22T04:15:44;7.05;;;4.78;;
6651;SDS011;3362;50.892;10.692;2023-07-22T04:18:10;6.75;;;4.57;;
6651;SDS011;3362;50.892;10.692;2023-07-22T04:20:37;8.20;;;4.55;;
6651;SDS011;3362;50.892;10.692;2023-07-22T04:23:03;7.45;;;4.28;;
6651;SDS011;3362;50.892;10.692;2023-07-22T04:25:29;9.70;;;4.72;;
6651;SDS011;3362;50.892;10.692;2023-07-22T04:27:55;9.43;;;4.90;;
6651;SDS011;3362;50.892;10.692;2023-07-22T04:30:22;9.68;;;4.88;;
6651;SDS011;3362;50.892;10.692;2023-07-22T04:32:50;7.97;;;5.28;;
6651;SDS011;3362;50.892;10.692;2023-07-22T04:35:17;8.23;;;5.07;;
6651;SDS011;3362;50.892;10.692;2023-07-22T04:37:43;9.98;;;5.55;;
6651;SDS011;3362;50.892;10.692;2023-07-22T04:40:10;9.73;;;5.60;;
6651;SDS011;3362;50.892;10.692;2023-07-22T04:42:39;8.65;;;5.53;;
6651;SDS011;3362;50.892;10.692;2023-07-22T04:45:06;7.93;;;5.55;;
6651;SDS011;3362;50.892;10.692;2023-07-22T04:47:32;7.53;;;5.63;;
6651;SDS011;3362;50.892;10.692;2023-07-22T04:50:00;11.55;;;5.18;;
6651;SDS011;3362;50.892;10.692;2023-07-22T04:52:26;10.60;;;5.15;;
6651;SDS011;3362;50.892;10.692;2023-07-22T04:54:52;8.43;;;5.38;;
6651;SDS011;3362;50.892;10.692;2023-07-22T04:57:19;11.15;;;5.20;;
6651;SDS011;3362;50.892;10.692;2023-07-22T04:59:46;13.10;;;6.35;;
6651;SDS011;3362;50.892;10.692;2023-07-22T05:02:12;10.57;;;4.80;;
6651;SDS011;3362;50.892;10.692;2023-07-22T05:04:38;12.57;;;5.40;;
6651;SDS011;3362;50.892;10.692;2023-07-22T05:07:06;8.35;;;4.90;;
6651;SDS011;3362;50.892;10.692;2023-07-22T05:09:32;7.47;;;4.88;;
6651;SDS011;3362;50.892;10.692;2023-07-22T05:11:59;9.27;;;5.50;;
6651;SDS011;3362;50.892;10.692;2023-07-22T05:14:25;6.85;;;5.20;;
6651;SDS011;3362;50.892;10.692;2023-07-22T05:16:51;9.45;;;5.43;;
6651;SDS011;3362;50.892;10.692;2023-07-22T05:19:17;7.60;;;5.20;;
6651;SDS011;3362;50.892;10.692;2023-07-22T05:21:45;9.05;;;6.03;;
6651;SDS011;3362;50.892;10.692;2023-07-22T05:24:13;11.30;;;5.65;;
6651;SDS011;3362;50.892;10.692;2023-07-22T05:26:39;11.23;;;5.30;;
6651;SDS011;3362;50.892;10.692;2023-07-22T05:29:05;11.63;;;6.10;;
6651;SDS011;3362;50.892;10.692;2023-07-22T05:31:32;8.10;;;5.32;;
6651;SDS011;3362;50.892;10.692;2023-07-22T05:33:58;10.15;;;5.97;;
6651;SDS011;3362;50.892;10.692;2023-07-22T05:36:26;8.60;;;4.60;;
6651;SDS011;3362;50.892;10.692;2023-07-22T05:38:52;7.25;;;5.00;;
6651;SDS011;3362;50.892;10.692;2023-07-22T05:41:20;8.55;;;4.93;;
6651;SDS011;3362;50.892;10.692;2023-07-22T05:43:46;10.43;;;5.57;;
6651;SDS011;3362;50.892;10.692;2023-07-22T05:46:13;8.95;;;5.10;;
6651;SDS011;3362;50.892;10.692;2023-07-22T05:48:39;9.15;;;5.60;;
6651;SDS011;3362;50.892;10.692;2023-07-22T05:51:05;7.72;;;4.95;;
6651;SDS011;3362;50.892;10.692;2023-07-22T05:53:32;9.35;;;5.95;;
6651;SDS011;3362;50.892;10.692;2023-07-22T05:55:58;10.57;;;5.55;;
6651;SDS011;3362;50.892;10.692;2023-07-22T05:58:26;8.27;;;4.88;;
6651;SDS011;3362;50.892;10.692;2023-07-22T06:00:53;9.60;;;6.05;;
6651;SDS011;3362;50.892;10.692;2023-07-22T06:03:19;9.70;;;5.13;;
6651;SDS011;3362;50.892;10.692;2023-07-22T06:05:46;9.07;;;6.10;;
6651;SDS011;3362;50.892;10.692;2023-07-22T06:08:12;9.52;;;5.47;;
6651;SDS011;3362;50.892;10.692;2023-07-22T06:10:39;8.98;;;4.78;;
6651;SDS011;3362;50.892;10.692;2023-07-22T06:13:06;11.18;;;5.32;;
6651;SDS011;3362;50.892;10.692;2023-07-22T06:15:33;9.55;;;6.00;;
6651;SDS011;3362;50.892;10.692;2023-07-22T06:18:00;9.38;;;5.10;;
6651;SDS011;3362;50.892;10.692;2023-07-22T06:20:26;9.30;;;4.63;;
6651;SDS011;3362;50.892;10.692;2023-07-22T06:22:52;10.20;;;5.05;;
6651;SDS011;3362;50.892;10.692;2023-07-22T06:25:19;9.05;;;4.45;;
6651;SDS011;3362;50.892;10.692;2023-07-22T06:27:46;8.90;;;5.45;;
6651;SDS011;3362;50.892;10.692;2023-07-22T06:30:12;10.52;;;4.80;;
6651;SDS011;3362;50.892;10.692;2023-07-22T06:32:39;7.22;;;4.32;;
6651;SDS011;3362;50.892;10.692;2023-07-22T06:35:06;7.15;;;4.18;;
6651;SDS011;3362;50.892;10.692;2023-07-22T06:37:33;8.18;;;4.18;;
6651;SDS011;3362;50.892;10.692;2023-07-22T06:39:59;13.15;;;3.80;;
6651;SDS011;3362;50.892;10.692;2023-07-22T06:42:25;5.72;;;3.75;;
6651;SDS011;3362;50.892;10.692;2023-07-22T06:44:52;4.78;;;3.25;;
6651;SDS011;3362;50.892;10.692;2023-07-22T06:47:18;5.30;;;3.38;;
6651;SDS011;3362;50.892;10.692;2023-07-22T06:49:46;4.85;;;3.10;;
6651;SDS011;3362;50.892;10.692;2023-07-22T06:52:12;7.72;;;2.80;;
6651;SDS011;3362;50.892;10.692;2023-07-22T06:54:38;8.02;;;4.30;;
6651;SDS011;3362;50.892;10.692;2023-07-22T06:57:05;7.45;;;3.70;;
6651;SDS011;3362;50.892;10.692;2023-07-22T06:59:32;8.10;;;3.70;;
6651;SDS011;3362;50.892;10.692;2023-07-22T07:01:58;6.50;;;3.95;;
6651;SDS011;3362;50.892;10.692;2023-07-22T07:04:24;6.15;;;4.10;;
6651;SDS011;3362;50.892;10.692;2023-07-22T07:06:52;8.38;;;4.50;;
6651;SDS011;3362;50.892;10.692;2023-07-22T07:09:18;8.52;;;4.15;;
6651;SDS011;3362;50.892;10.692;2023-07-22T07:11:45;6.30;;;4.15;;
6651;SDS011;3362;50.892;10.692;2023-07-22T07:14:11;7.95;;;3.35;;
6651;SDS011;3362;50.892;10.692;2023-07-22T07:16:38;6.18;;;4.18;;
6651;SDS011;3362;50.892;10.692;2023-07-22T07:19:04;10.68;;;4.45;;
6651;SDS011;3362;50.892;10.692;2023-07-22T07:21:31;7.70;;;3.47;;
6651;SDS011;3362;50.892;10.692;2023-07-22T07:23:59;8.20;;;4.13;;
6651;SDS011;3362;50.892;10.692;2023-07-22T07:26:25;6.97;;;4.00;;
6651;SDS011;3362;50.892;10.692;2023-07-22T07:28:52;4.63;;;3.22;;
6651;SDS011;3362;50.892;10.692;2023-07-22T07:31:18;8.00;;;3.35;;
6651;SDS011;3362;50.892;10.692;2023-07-22T07:33:44;4.72;;;3.33;;
6651;SDS011;3362;50.892;10.692;2023-07-22T07:36:11;4.38;;;2.97;;
6651;SDS011;3362;50.892;10.692;2023-07-22T07:38:37;4.97;;;3.55;;
6651;SDS011;3362;50.892;10.692;2023-07-22T07:41:06;4.60;;;3.10;;
6651;SDS011;3362;50.892;10.692;2023-07-22T07:43:33;7.07;;;3.53;;
6651;SDS011;3362;50.892;10.692;2023-07-22T07:46:12;4.60;;;3.03;;
6651;SDS011;3362;50.892;10.692;2023-07-22T07:48:38;5.18;;;2.40;;
6651;SDS011;3362;50.892;10.692;2023-07-22T07:51:05;4.72;;;2.70;;
6651;SDS011;3362;50.892;10.692;2023-07-22T07:53:31;4.88;;;2.95;;
6651;SDS011;3362;50.892;10.692;2023-07-22T07:55:57;4.32;;;2.90;;
6651;SDS011;3362;50.892;10.692;2023-07-22T07:58:25;5.00;;;3.03;;
6651;SDS011;3362;50.892;10.692;2023-07-22T08:00:51;5.45;;;3.22;;
6651;SDS011;3362;50.892;10.692;2023-07-22T08:03:17;5.60;;;3.17;;
6651;SDS011;3362;50.892;10.692;2023-07-22T08:05:44;5.10;;;3.03;;
6651;SDS011;3362;50.892;10.692;2023-07-22T08:08:10;7.82;;;2.88;;
6651;SDS011;3362;50.892;10.692;2023-07-22T08:10:37;6.30;;;2.88;;
6651;SDS011;3362;50.892;10.692;2023-07-22T08:13:04;4.93;;;3.15;;
6651;SDS011;3362;50.892;10.692;2023-07-22T08:15:31;3.90;;;2.75;;
6651;SDS011;3362;50.892;10.692;2023-07-22T08:17:59;5.43;;;3.42;;
6651;SDS011;3362;50.892;10.692;2023-07-22T08:20:25;5.03;;;2.65;;
6651;SDS011;3362;50.892;10.692;2023-07-22T08:22:51;3.97;;;2.92;;
6651;SDS011;3362;50.892;10.692;2023-07-22T08:25:18;5.32;;;2.95;;
6651;SDS011;3362;50.892;10.692;2023-07-22T08:27:44;4.13;;;2.85;;
6651;SDS011;3362;50.892;10.692;2023-07-22T08:30:10;4.55;;;3.30;;
6651;SDS011;3362;50.892;10.692;2023-07-22T08:32:38;4.30;;;2.45;;
6651;SDS011;3362;50.892;10.692;2023-07-22T08:35:05;6.88;;;3.30;;
6651;SDS011;3362;50.892;10.692;2023-07-22T08:37:32;4.75;;;2.75;;
6651;SDS011;3362;50.892;10.692;2023-07-22T08:39:58;5.40;;;2.97;;
6651;SDS011;3362;50.892;10.692;2023-07-22T08:42:25;5.68;;;2.67;;
6651;SDS011;3362;50.892;10.692;2023-07-22T08:44:53;3.33;;;2.47;;
6651;SDS011;3362;50.892;10.692;2023-07-22T08:47:22;4.10;;;1.98;;
6651;SDS011;3362;50.892;10.692;2023-07-22T08:49:52;3.60;;;2.42;;
6651;SDS011;3362;50.892;10.692;2023-07-22T08:52:20;3.45;;;2.13;;
6651;SDS011;3362;50.892;10.692;2023-07-22T08:54:46;3.35;;;1.90;;
6651;SDS011;3362;50.892;10.692;2023-07-22T08:57:13;3.90;;;2.60;;
6651;SDS011;3362;50.892;10.692;2023-07-22T08:59:40;3.55;;;2.33;;
6651;SDS011;3362;50.892;10.692;2023-07-22T09:02:07;3.55;;;2.58;;
6651;SDS011;3362;50.892;10.692;2023-07-22T09:04:36;3.00;;;2.42;;
6651;SDS011;3362;50.892;10.692;2023-07-22T09:07:04;2.38;;;1.88;;
6651;SDS011;3362;50.892;10.692;2023-07-22T09:09:31;5.45;;;2.90;;
6651;SDS011;3362;50.892;10.692;2023-07-22T09:11:58;3.92;;;2.17;;
6651;SDS011;3362;50.892;10.692;2023-07-22T09:14:25;3.42;;;2.25;;
6651;SDS011;3362;50.892;10.692;2023-07-22T09:16:51;4.35;;;2.08;;
6651;SDS011;3362;50.892;10.692;2023-07-22T09:19:18;3.80;;;2.15;;
6651;SDS011;3362;50.892;10.692;2023-07-22T09:21:44;3.38;;;2.47;;
6651;SDS011;3362;50.892;10.692;2023-07-22T09:24:22;3.05;;;1.98;;
6651;SDS011;3362;50.892;10.692;2023-07-22T09:26:48;2.53;;;1.80;;
6651;SDS011;3362;50.892;10.692;2023-07-22T09:29:15;2.78;;;2.10;;
6651;SDS011;3362;50.892;10.692;2023-07-22T09:31:48;3.15;;;2.45;;
6651;SDS011;3362;50.892;10.692;2023-07-22T09:34:14;3.83;;;2.60;;
6651;SDS011;3362;50.892;10.692;2023-07-22T09:36:50;4.10;;;2.30;;
6651;SDS011;3362;50.892;10.692;2023-07-22T09:39:17;5.35;;;2.25;;
6651;SDS011;3362;50.892;10.692;2023-07-22T09:41:44;3.97;;;2.72;;
6651;SDS011;3362;50.892;10.692;2023-07-22T09:44:10;3.45;;;2.45;;
6651;SDS011;3362;50.892;10.692;2023-07-22T09:46:37;2.80;;;2.05;;
6651;SDS011;3362;50.892;10.692;2023-07-22T09:49:04;3.00;;;1.80;;
6651;SDS011;3362;50.892;10.692;2023-07-22T09:51:32;4.97;;;1.80;;
6651;SDS011;3362;50.892;10.692;2023-07-22T09:53:59;8.35;;;2.20;;
6651;SDS011;3362;50.892;10.692;2023-07-22T09:56:26;3.15;;;1.80;;
6651;SDS011;3362;50.892;10.692;2023-07-22T09:58:54;3.35;;;2.35;;
6651;SDS011;3362;50.892;10.692;2023-07-22T10:01:22;3.15;;;2.10;;
6651;SDS011;3362;50.892;10.692;2023-07-22T10:03:49;2.97;;;2.38;;
6651;SDS011;3362;50.892;10.692;2023-07-22T10:06:19;2.75;;;2.25;;
6651;SDS011;3362;50.892;10.692;2023-07-22T10:08:46;3.92;;;2.33;;
6651;SDS011;3362;50.892;10.692;2023-07-22T10:11:13;4.22;;;2.55;;
6651;SDS011;3362;50.892;10.692;2023-07-22T10:13:40;2.55;;;2.15;;
6651;SDS011;3362;50.892;10.692;2023-07-22T10:16:08;3.40;;;2.60;;
6651;SDS011;3362;50.892;10.692;2023-07-22T10:18:34;2.60;;;2.20;;
6651;SDS011;3362;50.892;10.692;2023-07-22T10:21:02;7.43;;;2.42;;
6651;SDS011;3362;50.892;10.692;2023-07-22T10:23:28;4.05;;;2.20;;
6651;SDS011;3362;50.892;10.692;2023-07-22T10:25:55;2.65;;;2.20;;
6651;SDS011;3362;50.892;10.692;2023-07-22T10:28:23;6.75;;;2.50;;
6651;SDS011;3362;50.892;10.692;2023-07-22T10:30:49;2.72;;;2.28;;
6651;SDS011;3362;50.892;10.692;2023-07-22T10:33:17;7.75;;;2.78;;
6651;SDS011;3362;50.892;10.692;2023-07-22T10:35:46;6.45;;;2.40;;
6651;SDS011;3362;50.892;10.692;2023-07-22T10:38:27;3.17;;;2.55;;
6651;SDS011;3362;50.892;10.692;2023-07-22T10:40:53;3.10;;;2.28;;
6651;SDS011;3362;50.892;10.692;2023-07-22T10:43:23;3.33;;;2.67;;
6651;SDS011;3362;50.892;10.692;2023-07-22T10:45:50;3.03;;;2.10;;
6651;SDS011;3362;50.892;10.692;2023-07-22T10:48:18;4.03;;;3.28;;
6651;SDS011;3362;50.892;10.692;2023-07-22T10:50:45;3.15;;;2.38;;
6651;SDS011;3362;50.892;10.692;2023-07-22T10:53:13;3.63;;;2.20;;
6651;SDS011;3362;50.892;10.692;2023-07-22T10:58:25;3.75;;;2.55;;
6651;SDS011;3362;50.892;10.692;2023-07-22T11:00:51;5.32;;;3.17;;
6651;SDS011;3362;50.892;10.692;2023-07-22T11:03:19;4.35;;;2.58;;
6651;SDS011;3362;50.892;10.692;2023-07-22T11:05:49;3.80;;;2.42;;
6651;SDS011;3362;50.892;10.692;2023-07-22T11:08:17;3.13;;;2.50;;
6651;SDS011;3362;50.892;10.692;2023-07-22T11:11:00;2.28;;;1.90;;
6651;SDS011;3362;50.892;10.692;2023-07-22T11:13:27;3.05;;;2.30;;
6651;SDS011;3362;50.892;10.692;2023-07-22T11:15:57;2.67;;;2.10;;
6651;SDS011;3362;50.892;10.692;2023-07-22T11:18:32;3.20;;;2.22;;
6651;SDS011;3362;50.892;10.692;2023-07-22T11:21:01;3.55;;;2.40;;
6651;SDS011;3362;50.892;10.692;2023-07-22T11:23:27;2.35;;;1.90;;
6651;SDS011;3362;50.892;10.692;2023-07-22T11:25:53;2.60;;;1.85;;
6651;SDS011;3362;50.892;10.692;2023-07-22T11:28:20;2.78;;;1.92;;
6651;SDS011;3362;50.892;10.692;2023-07-22T11:30:47;2.78;;;2.05;;
6651;SDS011;3362;50.892;10.692;2023-07-22T11:33:13;2.33;;;1.98;;
6651;SDS011;3362;50.892;10.692;2023-07-22T11:35:43;3.08;;;2.20;;
6651;SDS011;3362;50.892;10.692;2023-07-22T11:38:11;3.38;;;2.33;;
6651;SDS011;3362;50.892;10.692;2023-07-22T11:40:37;5.72;;;2.45;;
6651;SDS011;3362;50.892;10.692;2023-07-22T11:43:04;4.88;;;2.05;;
6651;SDS011;3362;50.892;10.692;2023-07-22T11:45:30;3.55;;;2.05;;
6651;SDS011;3362;50.892;10.692;2023-07-22T11:47:57;2.80;;;2.00;;
6651;SDS011;3362;50.892;10.692;2023-07-22T11:50:30;4.05;;;2.28;;
6651;SDS011;3362;50.892;10.692;2023-07-22T11:52:58;4.05;;;2.00;;
6651;SDS011;3362;50.892;10.692;2023-07-22T11:55:25;2.80;;;2.08;;
6651;SDS011;3362;50.892;10.692;2023-07-22T11:57:51;3.50;;;2.10;;
6651;SDS011;3362;50.892;10.692;2023-07-22T12:00:18;2.83;;;2.00;;
6651;SDS011;3362;50.892;10.692;2023-07-22T12:02:44;5.32;;;1.80;;
6651;SDS011;3362;50.892;10.692;2023-07-22T12:05:10;2.92;;;2.17;;
6651;SDS011;3362;50.892;10.692;2023-07-22T12:07:37;6.90;;;2.05;;
6651;SDS011;3362;50.892;10.692;2023-07-22T12:10:06;2.35;;;2.10;;
6651;SDS011;3362;50.892;10.692;2023-07-22T12:12:33;2.63;;;1.90;;
6651;SDS011;3362;50.892;10.692;2023-07-22T12:15:01;5.75;;;2.45;;
6651;SDS011;3362;50.892;10.692;2023-07-22T12:17:29;4.18;;;1.85;;
6651;SDS011;3362;50.892;10.692;2023-07-22T12:19:55;2.53;;;1.88;;
6651;SDS011;3362;50.892;10.692;2023-07-22T12:22:21;1.90;;;1.67;;
6651;SDS011;3362;50.892;10.692;2023-07-22T12:24:48;4.10;;;1.95;;
6651;SDS011;3362;50.892;10.692;2023-07-22T12:27:16;3.20;;;2.38;;
6651;SDS011;3362;50.892;10.692;2023-07-22T12:29:42;3.80;;;2.50;;
6651;SDS011;3362;50.892;10.692;2023-07-22T12:32:08;4.85;;;2.40;;
6651;SDS011;3362;50.892;10.692;2023-07-22T12:34:35;4.78;;;2.20;;
6651;SDS011;3362;50.892;10.692;2023-07-22T12:37:01;3.40;;;2.15;;
6651;SDS011;3362;50.892;10.692;2023-07-22T12:39:28;6.32;;;2.15;;
6651;SDS011;3362;50.892;10.692;2023-07-22T12:41:54;5.32;;;2.00;;
6651;SDS011;3362;50.892;10.692;2023-07-22T12:44:22;3.22;;;2.03;;
6651;SDS011;3362;50.892;10.692;2023-07-22T12:46:48;2.55;;;2.30;;
6651;SDS011;3362;50.892;10.692;2023-07-22T12:49:14;3.10;;;2.28;;
6651;SDS011;3362;50.892;10.692;2023-07-22T12:51:41;4.28;;;1.77;;
6651;SDS011;3362;50.892;10.692;2023-07-22T12:54:07;3.30;;;2.28;;
6651;SDS011;3362;50.892;10.692;2023-07-22T12:56:33;3.00;;;2.05;;
6651;SDS011;3362;50.892;10.692;2023-07-22T12:58:59;3.03;;;2.00;;
6651;SDS011;3362;50.892;10.692;2023-07-22T13:01:27;3.33;;;1.98;;
6651;SDS011;3362;50.892;10.692;2023-07-22T13:03:53;3.13;;;2.35;;
6651;SDS011;3362;50.892;10.692;2023-07-22T13:06:20;2.95;;;2.30;;
6651;SDS011;3362;50.892;10.692;2023-07-22T13:08:46;2.83;;;1.98;;
6651;SDS011;3362;50.892;10.692;2023-07-22T13:11:12;2.25;;;1.63;;
6651;SDS011;3362;50.892;10.692;2023-07-22T13:13:38;2.70;;;2.10;;
6651;SDS011;3362;50.892;10.692;2023-07-22T13:16:04;3.33;;;1.98;;
6651;SDS011;3362;50.892;10.692;2023-07-22T13:18:32;3.22;;;2.38;;
6651;SDS011;3362;50.892;10.692;2023-07-22T13:20:58;2.65;;;1.90;;
6651;SDS011;3362;50.892;10.692;2023-07-22T13:23:25;3.42;;;2.60;;
6651;SDS011;3362;50.892;10.692;2023-07-22T13:25:51;2.78;;;1.80;;
6651;SDS011;3362;50.892;10.692;2023-07-22T13:28:17;5.63;;;2.40;;
6651;SDS011;3362;50.892;10.692;2023-07-22T13:30:43;2.45;;;1.95;;
6651;SDS011;3362;50.892;10.692;2023-07-22T13:33:10;3.63;;;2.08;;
6651;SDS011;3362;50.892;10.692;2023-07-22T13:35:37;3.15;;;2.05;;
6651;SDS011;3362;50.892;10.692;2023-07-22T13:38:03;3.08;;;2.10;;
6651;SDS011;3362;50.892;10.692;2023-07-22T13:40:30;2.53;;;1.90;;
6651;SDS011;3362;50.892;10.692;2023-07-22T13:42:57;3.90;;;2.35;;
6651;SDS011;3362;50.892;10.692;2023-07-22T13:45:23;5.47;;;2.40;;
6651;SDS011;3362;50.892;10.692;2023-07-22T13:47:49;2.92;;;2.35;;
6651;SDS011;3362;50.892;10.692;2023-07-22T13:50:16;2.70;;;1.85;;
6651;SDS011;3362;50.892;10.692;2023-07-22T13:52:43;2.78;;;1.83;;
6651;SDS011;3362;50.892;10.692;2023-07-22T13:55:09;2.33;;;1.98;;
6651;SDS011;3362;50.892;10.692;2023-07-22T13:57:36;4.07;;;2.50;;
6651;SDS011;3362;50.892;10.692;2023-07-22T14:00:02;3.83;;;2.20;;
6651;SDS011;3362;50.892;10.692;2023-07-22T14:02:32;2.92;;;2.30;;
6651;SDS011;3362;50.892;10.692;2023-07-22T14:04:58;5.72;;;1.90;;
6651;SDS011;3362;50.892;10.692;2023-07-22T14:07:24;4.03;;;2.22;;
6651;SDS011;3362;50.892;10.692;2023-07-22T14:09:52;3.08;;;2.13;;
6651;SDS011;3362;50.892;10.692;2023-07-22T14:12:19;3.55;;;2.30;;
6651;SDS011;3362;50.892;10.692;2023-07-22T14:14:45;2.50;;;2.20;;
6651;SDS011;3362;50.892;10.692;2023-07-22T14:17:11;3.03;;;2.03;;
6651;SDS011;3362;50.892;10.692;2023-07-22T14:19:37;4.30;;;2.05;;
6651;SDS011;3362;50.892;10.692;2023-07-22T14:22:04;2.60;;;2.13;;
6651;SDS011;3362;50.892;10.692;2023-07-22T14:24:30;3.67;;;2.30;;
6651;SDS011;3362;50.892;10.692;2023-07-22T14:26:58;3.63;;;1.95;;
6651;SDS011;3362;50.892;10.692;2023-07-22T14:29:24;4.90;;;2.13;;
6651;SDS011;3362;50.892;10.692;2023-07-22T14:31:51;3.38;;;2.20;;
6651;SDS011;3362;50.892;10.692;2023-07-22T14:34:17;6.00;;;2.05;;
6651;SDS011;3362;50.892;10.692;2023-07-22T14:36:43;8.35;;;2.03;;
6651;SDS011;3362;50.892;10.692;2023-07-22T14:39:09;2.85;;;2.05;;
6651;SDS011;3362;50.892;10.692;2023-07-22T14:41:36;3.92;;;2.35;;
6651;SDS011;3362;50.892;10.692;2023-07-22T14:44:04;2.75;;;2.28;;
6651;SDS011;3362;50.892;10.692;2023-07-22T14:46:30;2.08;;;1.88;;
6651;SDS011;3362;50.892;10.692;2023-07-22T14:48:57;3.88;;;2.58;;
6651;SDS011;3362;50.892;10.692;2023-07-22T14:51:23;2.70;;;2.33;;
6651;SDS011;3362;50.892;10.692;2023-07-22T14:53:49;3.22;;;2.15;;
6651;SDS011;3362;50.892;10.692;2023-07-22T14:56:16;2.35;;;1.75;;
6651;SDS011;3362;50.892;10.692;2023-07-22T14:58:42;3.45;;;1.95;;
6651;SDS011;3362;50.892;10.692;2023-07-22T15:01:10;3.72;;;2.50;;